sensor_id;sensor_type;location;lat;lon;timestamp;P1;durP1;ratioP1;P2;durP2;ratioP2
20142;SDS011;10509;46.476;7.134;2023-08-21T00:01:21;5.10;;;4.47;;
20142;SDS011;10509;46.476;7.134;2023-08-21T00:03:47;8.13;;;4.38;;
20142;SDS011;10509;46.476;7.134;2023-08-21T00:06:13;5.57;;;4.43;;
20142;SDS011;10509;46.476;7.134;2023-08-21T00:08:38;4.45;;;4.05;;
20142;SDS011;10509;46.476;7.134;2023-08-21T00:11:04;9.43;;;4.55;;
20142;SDS011;10509;46.476;7.134;2023-08-21T00:13:30;5.00;;;4.07;;
20142;SDS011;10509;46.476;7.134;2023-08-21T00:15:56;5.47;;;4.07;;
20142;SDS011;10509;46.476;7.134;2023-08-21T00:18:22;5.32;;;4.78;;
20142;SDS011;10509;46.476;7.134;2023-08-21T00:20:48;4.72;;;4.22;;
20142;SDS011;10509;46.476;7.134;2023-08-21T00:23:14;6.22;;;4.32;;
20142;SDS011;10509;46.476;7.134;2023-08-21T00:25:41;6.78;;;4.57;;
20142;SDS011;10509;46.476;7.134;2023-08-21T00:28:07;5.45;;;4.78;;
20142;SDS011;10509;46.476;7.134;2023-08-21T00:30:33;8.20;;;4.45;;
20142;SDS011;10509;46.476;7.134;2023-08-21T00:32:59;6.05;;;4.90;;
20142;SDS011;10509;46.476;7.134;2023-08-21T00:35:25;6.55;;;4.00;;
20142;SDS011;10509;46.476;7.134;2023-08-21T00:37:51;6.30;;;4.75;;
20142;SDS011;10509;46.476;7.134;2023-08-21T00:40:17;9.48;;;4.93;;
20142;SDS011;10509;46.476;7.134;2023-08-21T00:42:43;4.80;;;4.00;;
20142;SDS011;10509;46.476;7.134;2023-08-21T00:45:09;5.72;;;4.72;;
20142;SDS011;10509;46.476;7.134;2023-08-21T00:47:36;7.72;;;5.13;;
20142;SDS011;10509;46.476;7.134;2023-08-21T00:50:03;6.63;;;4.82;;
20142;SDS011;10509;46.476;7.134;2023-08-21T00:52:29;6.03;;;4.65;;
20142;SDS011;10509;46.476;7.134;2023-08-21T00:54:55;7.25;;;4.53;;
20142;SDS011;10509;46.476;7.134;2023-08-21T00:57:21;6.82;;;4.88;;
20142;SDS011;10509;46.476;7.134;2023-08-21T00:59:48;6.85;;;4.57;;
20142;SDS011;10509;46.476;7.134;2023-08-21T01:02:14;5.63;;;4.72;;
20142;SDS011;10509;46.476;7.134;2023-08-21T01:04:40;6.65;;;4.95;;
20142;SDS011;10509;46.476;7.134;2023-08-21T01:07:06;6.22;;;4.80;;
20142;SDS011;10509;46.476;7.134;2023-08-21T01:09:50;7.97;;;5.05;;
20142;SDS011;10509;46.476;7.134;2023-08-21T01:12:25;5.00;;;4.57;;
20142;SDS011;10509;46.476;7.134;2023-08-21T01:14:58;7.95;;;4.75;;
20142;SDS011;10509;46.476;7.134;2023-08-21T01:17:25;5.70;;;5.13;;
20142;SDS011;10509;46.476;7.134;2023-08-21T01:19:51;5.73;;;4.87;;
20142;SDS011;10509;46.476;7.134;2023-08-21T01:22:18;6.77;;;5.00;;
20142;SDS011;10509;46.476;7.134;2023-08-21T01:24:44;5.83;;;4.73;;
20142;SDS011;10509;46.476;7.134;2023-08-21T01:27:10;5.85;;;5.05;;
20142;SDS011;10509;46.476;7.134;2023-08-21T01:29:37;5.03;;;4.53;;
20142;SDS011;10509;46.476;7.134;2023-08-21T01:32:21;5.07;;;4.55;;
20142;SDS011;10509;46.476;7.134;2023-08-21T01:34:49;6.83;;;4.67;;
20142;SDS011;10509;46.476;7.134;2023-08-21T01:37:17;8.73;;;4.73;;
20142;SDS011;10509;46.476;7.134;2023-08-21T01:39:43;6.77;;;4.60;;
20142;SDS011;10509;46.476;7.134;2023-08-21T01:42:09;5.07;;;4.50;;
20142;SDS011;10509;46.476;7.134;2023-08-21T01:44:36;8.10;;;4.70;;
20142;SDS011;10509;46.476;7.134;2023-08-21T01:47:02;6.67;;;5.10;;
20142;SDS011;10509;46.476;7.134;2023-08-21T01:49:28;6.13;;;5.30;;
20142;SDS011;10509;46.476;7.134;2023-08-21T01:51:54;5.83;;;4.77;;
20142;SDS011;10509;46.476;7.134;2023-08-21T01:54:20;5.22;;;4.72;;
20142;SDS011;10509;46.476;7.134;2023-08-21T01:56:46;6.60;;;4.97;;
20142;SDS011;10509;46.476;7.134;2023-08-21T01:59:12;13.10;;;5.17;;
20142;SDS011;10509;46.476;7.134;2023-08-21T02:01:37;6.53;;;4.63;;
20142;SDS011;10509;46.476;7.134;2023-08-21T02:04:03;5.67;;;4.77;;
20142;SDS011;10509;46.476;7.134;2023-08-21T02:06:29;7.53;;;5.07;;
20142;SDS011;10509;46.476;7.134;2023-08-21T02:08:55;6.07;;;5.43;;
20142;SDS011;10509;46.476;7.134;2023-08-21T02:11:21;5.07;;;4.67;;
20142;SDS011;10509;46.476;7.134;2023-08-21T02:13:47;8.00;;;4.77;;
20142;SDS011;10509;46.476;7.134;2023-08-21T02:16:13;4.97;;;4.57;;
20142;SDS011;10509;46.476;7.134;2023-08-21T02:18:39;6.03;;;4.53;;
20142;SDS011;10509;46.476;7.134;2023-08-21T02:21:05;6.87;;;4.50;;
20142;SDS011;10509;46.476;7.134;2023-08-21T02:23:31;9.93;;;4.87;;
20142;SDS011;10509;46.476;7.134;2023-08-21T02:25:58;10.30;;;4.93;;
20142;SDS011;10509;46.476;7.134;2023-08-21T02:28:24;7.13;;;5.37;;
20142;SDS011;10509;46.476;7.134;2023-08-21T02:30:50;4.87;;;4.40;;
20142;SDS011;10509;46.476;7.134;2023-08-21T02:33:16;7.43;;;4.30;;
20142;SDS011;10509;46.476;7.134;2023-08-21T02:35:42;5.50;;;4.90;;
20142;SDS011;10509;46.476;7.134;2023-08-21T02:38:08;7.30;;;5.13;;
20142;SDS011;10509;46.476;7.134;2023-08-21T02:40:34;6.53;;;4.30;;
20142;SDS011;10509;46.476;7.134;2023-08-21T02:43:00;6.53;;;5.13;;
20142;SDS011;10509;46.476;7.134;2023-08-21T02:45:26;6.77;;;5.13;;
20142;SDS011;10509;46.476;7.134;2023-08-21T02:47:52;7.10;;;5.40;;
20142;SDS011;10509;46.476;7.134;2023-08-21T02:50:18;5.10;;;4.60;;
20142;SDS011;10509;46.476;7.134;2023-08-21T02:52:44;5.77;;;4.33;;
20142;SDS011;10509;46.476;7.134;2023-08-21T02:55:10;6.97;;;5.10;;
20142;SDS011;10509;46.476;7.134;2023-08-21T02:57:36;8.17;;;5.07;;
20142;SDS011;10509;46.476;7.134;2023-08-21T03:00:02;7.63;;;5.23;;
20142;SDS011;10509;46.476;7.134;2023-08-21T03:02:29;8.10;;;5.37;;
20142;SDS011;10509;46.476;7.134;2023-08-21T03:04:55;6.77;;;5.10;;
20142;SDS011;10509;46.476;7.134;2023-08-21T03:07:21;7.57;;;5.13;;
20142;SDS011;10509;46.476;7.134;2023-08-21T03:09:47;5.73;;;5.03;;
20142;SDS011;10509;46.476;7.134;2023-08-21T03:12:13;8.73;;;4.90;;
20142;SDS011;10509;46.476;7.134;2023-08-21T03:14:39;8.80;;;5.33;;
20142;SDS011;10509;46.476;7.134;2023-08-21T03:17:05;7.37;;;4.97;;
20142;SDS011;10509;46.476;7.134;2023-08-21T03:19:31;6.70;;;4.80;;
20142;SDS011;10509;46.476;7.134;2023-08-21T03:21:57;5.27;;;4.87;;
20142;SDS011;10509;46.476;7.134;2023-08-21T03:24:23;8.83;;;5.57;;
20142;SDS011;10509;46.476;7.134;2023-08-21T03:26:49;5.87;;;5.37;;
20142;SDS011;10509;46.476;7.134;2023-08-21T03:29:15;6.07;;;5.20;;
20142;SDS011;10509;46.476;7.134;2023-08-21T03:31:41;6.83;;;4.47;;
20142;SDS011;10509;46.476;7.134;2023-08-21T03:34:07;5.60;;;5.10;;
20142;SDS011;10509;46.476;7.134;2023-08-21T03:36:34;5.47;;;4.93;;
20142;SDS011;10509;46.476;7.134;2023-08-21T03:39:02;5.67;;;5.13;;
20142;SDS011;10509;46.476;7.134;2023-08-21T03:41:29;6.23;;;4.70;;
20142;SDS011;10509;46.476;7.134;2023-08-21T03:43:55;6.70;;;4.97;;
20142;SDS011;10509;46.476;7.134;2023-08-21T03:46:21;9.27;;;4.97;;
20142;SDS011;10509;46.476;7.134;2023-08-21T03:48:47;6.80;;;5.03;;
20142;SDS011;10509;46.476;7.134;2023-08-21T03:51:13;5.77;;;5.00;;
20142;SDS011;10509;46.476;7.134;2023-08-21T03:53:39;10.60;;;5.00;;
20142;SDS011;10509;46.476;7.134;2023-08-21T03:56:05;6.23;;;4.83;;
20142;SDS011;10509;46.476;7.134;2023-08-21T03:58:31;6.50;;;5.47;;
20142;SDS011;10509;46.476;7.134;2023-08-21T04:00:57;11.50;;;5.43;;
20142;SDS011;10509;46.476;7.134;2023-08-21T04:03:23;7.87;;;5.57;;
20142;SDS011;10509;46.476;7.134;2023-08-21T04:05:49;5.77;;;5.17;;
20142;SDS011;10509;46.476;7.134;2023-08-21T04:08:15;5.47;;;4.97;;
20142;SDS011;10509;46.476;7.134;2023-08-21T04:10:41;11.63;;;5.33;;
20142;SDS011;10509;46.476;7.134;2023-08-21T04:13:07;5.67;;;4.80;;
20142;SDS011;10509;46.476;7.134;2023-08-21T04:15:33;9.77;;;5.87;;
20142;SDS011;10509;46.476;7.134;2023-08-21T04:18:03;6.23;;;5.00;;
20142;SDS011;10509;46.476;7.134;2023-08-21T04:20:29;7.20;;;5.33;;
20142;SDS011;10509;46.476;7.134;2023-08-21T04:22:55;7.40;;;5.77;;
20142;SDS011;10509;46.476;7.134;2023-08-21T04:25:21;8.73;;;6.00;;
20142;SDS011;10509;46.476;7.134;2023-08-21T04:27:47;13.53;;;6.40;;
20142;SDS011;10509;46.476;7.134;2023-08-21T04:30:13;9.03;;;5.33;;
20142;SDS011;10509;46.476;7.134;2023-08-21T04:32:39;10.07;;;5.80;;
20142;SDS011;10509;46.476;7.134;2023-08-21T04:35:05;10.07;;;5.27;;
20142;SDS011;10509;46.476;7.134;2023-08-21T04:37:33;9.37;;;5.60;;
20142;SDS011;10509;46.476;7.134;2023-08-21T04:39:59;9.50;;;5.67;;
20142;SDS011;10509;46.476;7.134;2023-08-21T04:42:25;16.37;;;5.97;;
20142;SDS011;10509;46.476;7.134;2023-08-21T04:44:51;7.33;;;5.50;;
20142;SDS011;10509;46.476;7.134;2023-08-21T04:47:24;6.93;;;5.80;;
20142;SDS011;10509;46.476;7.134;2023-08-21T04:49:51;8.70;;;5.47;;
20142;SDS011;10509;46.476;7.134;2023-08-21T04:52:17;7.63;;;5.53;;
20142;SDS011;10509;46.476;7.134;2023-08-21T04:54:43;7.93;;;5.50;;
20142;SDS011;10509;46.476;7.134;2023-08-21T04:57:09;6.03;;;5.43;;
20142;SDS011;10509;46.476;7.134;2023-08-21T04:59:36;7.47;;;5.43;;
20142;SDS011;10509;46.476;7.134;2023-08-21T05:02:02;8.23;;;5.57;;
20142;SDS011;10509;46.476;7.134;2023-08-21T05:04:28;28.43;;;7.70;;
20142;SDS011;10509;46.476;7.134;2023-08-21T05:06:54;9.20;;;5.47;;
20142;SDS011;10509;46.476;7.134;2023-08-21T05:09:20;5.63;;;5.13;;
20142;SDS011;10509;46.476;7.134;2023-08-21T05:11:46;8.83;;;5.30;;
20142;SDS011;10509;46.476;7.134;2023-08-21T05:14:12;9.33;;;5.30;;
20142;SDS011;10509;46.476;7.134;2023-08-21T05:16:38;7.20;;;5.53;;
20142;SDS011;10509;46.476;7.134;2023-08-21T05:19:04;5.83;;;5.03;;
20142;SDS011;10509;46.476;7.134;2023-08-21T05:21:30;7.47;;;5.37;;
20142;SDS011;10509;46.476;7.134;2023-08-21T05:23:56;7.13;;;5.53;;
20142;SDS011;10509;46.476;7.134;2023-08-21T05:26:22;9.03;;;5.07;;
20142;SDS011;10509;46.476;7.134;2023-08-21T05:28:48;10.50;;;6.73;;
20142;SDS011;10509;46.476;7.134;2023-08-21T05:31:14;8.50;;;5.40;;
20142;SDS011;10509;46.476;7.134;2023-08-21T05:33:40;9.70;;;5.20;;
20142;SDS011;10509;46.476;7.134;2023-08-21T05:36:07;6.40;;;5.67;;
20142;SDS011;10509;46.476;7.134;2023-08-21T05:38:33;6.90;;;5.10;;
20142;SDS011;10509;46.476;7.134;2023-08-21T05:40:59;7.77;;;4.57;;
20142;SDS011;10509;46.476;7.134;2023-08-21T05:43:25;16.08;;;5.63;;
20142;SDS011;10509;46.476;7.134;2023-08-21T05:45:51;8.32;;;5.05;;
20142;SDS011;10509;46.476;7.134;2023-08-21T05:48:17;6.47;;;4.60;;
20142;SDS011;10509;46.476;7.134;2023-08-21T05:50:43;5.50;;;4.93;;
20142;SDS011;10509;46.476;7.134;2023-08-21T05:53:09;7.43;;;4.90;;
20142;SDS011;10509;46.476;7.134;2023-08-21T05:55:38;8.68;;;5.38;;
20142;SDS011;10509;46.476;7.134;2023-08-21T05:58:04;11.02;;;4.90;;
20142;SDS011;10509;46.476;7.134;2023-08-21T06:00:32;6.15;;;4.70;;
20142;SDS011;10509;46.476;7.134;2023-08-21T06:02:58;5.90;;;4.78;;
20142;SDS011;10509;46.476;7.134;2023-08-21T06:05:24;8.00;;;4.65;;
20142;SDS011;10509;46.476;7.134;2023-08-21T06:07:50;6.72;;;4.80;;
20142;SDS011;10509;46.476;7.134;2023-08-21T06:10:17;6.28;;;4.55;;
20142;SDS011;10509;46.476;7.134;2023-08-21T06:12:43;6.65;;;4.75;;
20142;SDS011;10509;46.476;7.134;2023-08-21T06:15:09;5.88;;;5.00;;
20142;SDS011;10509;46.476;7.134;2023-08-21T06:17:35;8.50;;;4.75;;
20142;SDS011;10509;46.476;7.134;2023-08-21T06:20:02;7.10;;;4.65;;
20142;SDS011;10509;46.476;7.134;2023-08-21T06:22:30;6.80;;;4.78;;
20142;SDS011;10509;46.476;7.134;2023-08-21T06:24:56;20.95;;;5.70;;
20142;SDS011;10509;46.476;7.134;2023-08-21T06:27:22;8.68;;;5.18;;
20142;SDS011;10509;46.476;7.134;2023-08-21T06:29:48;10.15;;;4.88;;
20142;SDS011;10509;46.476;7.134;2023-08-21T06:32:14;9.95;;;5.00;;
20142;SDS011;10509;46.476;7.134;2023-08-21T06:34:40;8.50;;;5.18;;
20142;SDS011;10509;46.476;7.134;2023-08-21T06:37:06;7.72;;;4.88;;
20142;SDS011;10509;46.476;7.134;2023-08-21T06:39:33;8.20;;;5.40;;
20142;SDS011;10509;46.476;7.134;2023-08-21T06:41:59;11.82;;;4.93;;
20142;SDS011;10509;46.476;7.134;2023-08-21T06:44:35;7.07;;;4.82;;
20142;SDS011;10509;46.476;7.134;2023-08-21T06:47:01;6.97;;;5.95;;
20142;SDS011;10509;46.476;7.134;2023-08-21T06:49:27;8.63;;;4.95;;
20142;SDS011;10509;46.476;7.134;2023-08-21T06:51:53;6.40;;;4.18;;
20142;SDS011;10509;46.476;7.134;2023-08-21T06:54:19;6.80;;;5.15;;
20142;SDS011;10509;46.476;7.134;2023-08-21T06:56:45;7.93;;;5.05;;
20142;SDS011;10509;46.476;7.134;2023-08-21T06:59:11;7.70;;;4.97;;
20142;SDS011;10509;46.476;7.134;2023-08-21T07:01:37;6.70;;;5.28;;
20142;SDS011;10509;46.476;7.134;2023-08-21T07:04:03;5.63;;;4.70;;
20142;SDS011;10509;46.476;7.134;2023-08-21T07:06:29;6.60;;;4.78;;
20142;SDS011;10509;46.476;7.134;2023-08-21T07:08:56;5.45;;;4.95;;
20142;SDS011;10509;46.476;7.134;2023-08-21T07:11:22;7.07;;;5.05;;
20142;SDS011;10509;46.476;7.134;2023-08-21T07:13:48;7.82;;;4.35;;
20142;SDS011;10509;46.476;7.134;2023-08-21T07:16:15;5.63;;;4.10;;
20142;SDS011;10509;46.476;7.134;2023-08-21T07:18:41;12.00;;;4.82;;
20142;SDS011;10509;46.476;7.134;2023-08-21T07:21:06;9.27;;;4.88;;
20142;SDS011;10509;46.476;7.134;2023-08-21T07:23:32;8.55;;;4.60;;
20142;SDS011;10509;46.476;7.134;2023-08-21T07:25:59;8.52;;;5.00;;
20142;SDS011;10509;46.476;7.134;2023-08-21T07:28:25;5.85;;;4.47;;
20142;SDS011;10509;46.476;7.134;2023-08-21T07:30:57;8.82;;;4.80;;
20142;SDS011;10509;46.476;7.134;2023-08-21T07:33:26;7.90;;;4.53;;
20142;SDS011;10509;46.476;7.134;2023-08-21T07:38:25;7.97;;;4.53;;
20142;SDS011;10509;46.476;7.134;2023-08-21T07:40:51;7.65;;;4.40;;
20142;SDS011;10509;46.476;7.134;2023-08-21T07:43:17;5.22;;;3.90;;
20142;SDS011;10509;46.476;7.134;2023-08-21T07:45:42;6.88;;;4.15;;
20142;SDS011;10509;46.476;7.134;2023-08-21T07:48:09;6.55;;;4.07;;
20142;SDS011;10509;46.476;7.134;2023-08-21T07:50:35;8.13;;;4.32;;
20142;SDS011;10509;46.476;7.134;2023-08-21T07:53:00;7.97;;;4.18;;
20142;SDS011;10509;46.476;7.134;2023-08-21T07:55:26;6.80;;;4.15;;
20142;SDS011;10509;46.476;7.134;2023-08-21T07:57:52;9.15;;;4.35;;
20142;SDS011;10509;46.476;7.134;2023-08-21T08:00:18;5.22;;;4.43;;
20142;SDS011;10509;46.476;7.134;2023-08-21T08:02:44;10.65;;;4.13;;
20142;SDS011;10509;46.476;7.134;2023-08-21T08:05:10;5.82;;;4.18;;
20142;SDS011;10509;46.476;7.134;2023-08-21T08:07:36;6.20;;;4.53;;
20142;SDS011;10509;46.476;7.134;2023-08-21T08:10:03;7.00;;;4.25;;
20142;SDS011;10509;46.476;7.134;2023-08-21T08:12:29;6.68;;;4.40;;
20142;SDS011;10509;46.476;7.134;2023-08-21T08:14:55;6.97;;;4.10;;
20142;SDS011;10509;46.476;7.134;2023-08-21T08:17:21;7.40;;;4.53;;
20142;SDS011;10509;46.476;7.134;2023-08-21T08:19:47;6.88;;;3.90;;
20142;SDS011;10509;46.476;7.134;2023-08-21T08:22:13;6.50;;;3.90;;
20142;SDS011;10509;46.476;7.134;2023-08-21T08:24:39;9.25;;;3.95;;
20142;SDS011;10509;46.476;7.134;2023-08-21T08:27:05;7.05;;;4.10;;
20142;SDS011;10509;46.476;7.134;2023-08-21T08:29:31;4.93;;;3.70;;
20142;SDS011;10509;46.476;7.134;2023-08-21T08:31:57;9.07;;;4.50;;
20142;SDS011;10509;46.476;7.134;2023-08-21T08:34:23;8.95;;;4.47;;
20142;SDS011;10509;46.476;7.134;2023-08-21T08:36:49;7.20;;;4.35;;
20142;SDS011;10509;46.476;7.134;2023-08-21T08:39:15;15.15;;;5.50;;
20142;SDS011;10509;46.476;7.134;2023-08-21T08:44:07;4.65;;;3.92;;
20142;SDS011;10509;46.476;7.134;2023-08-21T08:46:34;6.63;;;4.18;;
20142;SDS011;10509;46.476;7.134;2023-08-21T08:49:00;8.38;;;4.40;;
20142;SDS011;10509;46.476;7.134;2023-08-21T08:51:28;6.10;;;3.88;;
20142;SDS011;10509;46.476;7.134;2023-08-21T08:53:55;7.63;;;4.45;;
20142;SDS011;10509;46.476;7.134;2023-08-21T08:56:21;12.18;;;4.20;;
20142;SDS011;10509;46.476;7.134;2023-08-21T08:58:47;11.43;;;3.85;;
20142;SDS011;10509;46.476;7.134;2023-08-21T09:01:13;4.93;;;3.92;;
20142;SDS011;10509;46.476;7.134;2023-08-21T09:03:40;6.05;;;3.33;;
20142;SDS011;10509;46.476;7.134;2023-08-21T09:06:06;6.63;;;3.65;;
20142;SDS011;10509;46.476;7.134;2023-08-21T09:08:32;6.35;;;3.63;;
20142;SDS011;10509;46.476;7.134;2023-08-21T09:11:00;4.82;;;3.75;;
20142;SDS011;10509;46.476;7.134;2023-08-21T09:13:28;5.05;;;3.65;;
20142;SDS011;10509;46.476;7.134;2023-08-21T09:15:54;7.40;;;3.60;;
20142;SDS011;10509;46.476;7.134;2023-08-21T09:18:21;3.20;;;2.90;;
20142;SDS011;10509;46.476;7.134;2023-08-21T09:20:47;6.55;;;3.70;;
20142;SDS011;10509;46.476;7.134;2023-08-21T09:23:14;5.60;;;3.08;;
20142;SDS011;10509;46.476;7.134;2023-08-21T09:25:40;6.78;;;3.33;;
20142;SDS011;10509;46.476;7.134;2023-08-21T09:28:07;5.55;;;2.72;;
20142;SDS011;10509;46.476;7.134;2023-08-21T09:30:49;6.80;;;3.03;;
20142;SDS011;10509;46.476;7.134;2023-08-21T09:33:22;4.03;;;3.00;;
20142;SDS011;10509;46.476;7.134;2023-08-21T09:35:48;7.13;;;3.35;;
20142;SDS011;10509;46.476;7.134;2023-08-21T09:38:14;8.05;;;3.50;;
20142;SDS011;10509;46.476;7.134;2023-08-21T09:40:41;5.05;;;3.60;;
20142;SDS011;10509;46.476;7.134;2023-08-21T09:43:10;6.20;;;3.55;;
20142;SDS011;10509;46.476;7.134;2023-08-21T09:45:37;5.93;;;3.42;;
20142;SDS011;10509;46.476;7.134;2023-08-21T09:48:03;6.68;;;3.60;;
20142;SDS011;10509;46.476;7.134;2023-08-21T09:50:30;4.60;;;3.00;;
20142;SDS011;10509;46.476;7.134;2023-08-21T09:52:57;5.53;;;3.13;;
20142;SDS011;10509;46.476;7.134;2023-08-21T09:55:23;4.40;;;2.80;;
20142;SDS011;10509;46.476;7.134;2023-08-21T09:57:56;6.30;;;3.03;;
20142;SDS011;10509;46.476;7.134;2023-08-21T10:00:28;3.50;;;2.85;;
20142;SDS011;10509;46.476;7.134;2023-08-21T10:02:55;4.80;;;3.17;;
20142;SDS011;10509;46.476;7.134;2023-08-21T10:05:25;8.00;;;3.40;;
20142;SDS011;10509;46.476;7.134;2023-08-21T10:07:51;6.07;;;3.08;;
20142;SDS011;10509;46.476;7.134;2023-08-21T10:10:18;6.68;;;3.15;;
20142;SDS011;10509;46.476;7.134;2023-08-21T10:12:44;6.80;;;3.05;;
20142;SDS011;10509;46.476;7.134;2023-08-21T10:15:10;5.35;;;2.65;;
20142;SDS011;10509;46.476;7.134;2023-08-21T10:17:37;6.40;;;2.45;;
20142;SDS011;10509;46.476;7.134;2023-08-21T10:20:04;5.57;;;2.50;;
20142;SDS011;10509;46.476;7.134;2023-08-21T10:22:44;3.58;;;2.30;;
20142;SDS011;10509;46.476;7.134;2023-08-21T10:25:25;3.95;;;2.50;;
20142;SDS011;10509;46.476;7.134;2023-08-21T10:27:52;4.47;;;2.50;;
20142;SDS011;10509;46.476;7.134;2023-08-21T10:30:21;4.68;;;2.80;;
20142;SDS011;10509;46.476;7.134;2023-08-21T10:32:48;3.92;;;2.58;;
20142;SDS011;10509;46.476;7.134;2023-08-21T10:35:15;7.78;;;2.58;;
20142;SDS011;10509;46.476;7.134;2023-08-21T10:38:28;4.32;;;2.97;;
20142;SDS011;10509;46.476;7.134;2023-08-21T10:40:29;7.60;;;2.60;;
20142;SDS011;10509;46.476;7.134;2023-08-21T10:42:55;5.85;;;2.38;;
20142;SDS011;10509;46.476;7.134;2023-08-21T10:45:21;5.18;;;2.95;;
20142;SDS011;10509;46.476;7.134;2023-08-21T10:47:47;5.22;;;2.53;;
20142;SDS011;10509;46.476;7.134;2023-08-21T10:50:15;8.00;;;2.75;;
20142;SDS011;10509;46.476;7.134;2023-08-21T10:52:42;3.65;;;2.35;;
20142;SDS011;10509;46.476;7.134;2023-08-21T10:55:10;6.35;;;1.90;;
20142;SDS011;10509;46.476;7.134;2023-08-21T10:57:37;4.07;;;1.85;;
20142;SDS011;10509;46.476;7.134;2023-08-21T11:00:04;5.30;;;2.45;;
20142;SDS011;10509;46.476;7.134;2023-08-21T11:02:32;5.15;;;2.40;;
20142;SDS011;10509;46.476;7.134;2023-08-21T11:04:59;6.30;;;2.20;;
20142;SDS011;10509;46.476;7.134;2023-08-21T11:07:25;5.13;;;2.00;;
20142;SDS011;10509;46.476;7.134;2023-08-21T11:09:52;5.18;;;2.40;;
20142;SDS011;10509;46.476;7.134;2023-08-21T11:12:19;6.07;;;2.15;;
20142;SDS011;10509;46.476;7.134;2023-08-21T11:14:45;3.10;;;1.88;;
20142;SDS011;10509;46.476;7.134;2023-08-21T11:17:12;5.22;;;1.92;;
20142;SDS011;10509;46.476;7.134;2023-08-21T11:19:38;2.83;;;1.30;;
20142;SDS011;10509;46.476;7.134;2023-08-21T11:22:04;2.70;;;1.50;;
20142;SDS011;10509;46.476;7.134;2023-08-21T11:24:41;3.80;;;1.70;;
20142;SDS011;10509;46.476;7.134;2023-08-21T11:27:11;4.65;;;1.45;;
20142;SDS011;10509;46.476;7.134;2023-08-21T11:32:10;5.03;;;1.73;;
20142;SDS011;10509;46.476;7.134;2023-08-21T11:34:36;3.28;;;1.65;;
20142;SDS011;10509;46.476;7.134;2023-08-21T11:37:03;3.03;;;1.50;;
20142;SDS011;10509;46.476;7.134;2023-08-21T11:39:40;3.03;;;1.13;;
20142;SDS011;10509;46.476;7.134;2023-08-21T11:42:10;2.03;;;1.20;;
20142;SDS011;10509;46.476;7.134;2023-08-21T11:44:44;3.63;;;1.50;;
20142;SDS011;10509;46.476;7.134;2023-08-21T11:47:11;2.90;;;1.42;;
20142;SDS011;10509;46.476;7.134;2023-08-21T11:49:38;2.78;;;1.40;;
20142;SDS011;10509;46.476;7.134;2023-08-21T11:52:06;2.83;;;1.95;;
20142;SDS011;10509;46.476;7.134;2023-08-21T11:54:33;3.92;;;1.90;;
20142;SDS011;10509;46.476;7.134;2023-08-21T11:57:00;4.18;;;1.77;;
20142;SDS011;10509;46.476;7.134;2023-08-21T11:59:29;5.82;;;1.50;;
20142;SDS011;10509;46.476;7.134;2023-08-21T12:01:55;4.38;;;1.17;;
20142;SDS011;10509;46.476;7.134;2023-08-21T12:04:21;3.45;;;1.17;;
20142;SDS011;10509;46.476;7.134;2023-08-21T12:06:47;4.60;;;1.20;;
20142;SDS011;10509;46.476;7.134;2023-08-21T12:09:13;2.42;;;1.10;;
20142;SDS011;10509;46.476;7.134;2023-08-21T12:11:40;3.40;;;1.33;;
20142;SDS011;10509;46.476;7.134;2023-08-21T12:14:06;2.40;;;1.10;;
20142;SDS011;10509;46.476;7.134;2023-08-21T12:16:32;2.42;;;1.10;;
20142;SDS011;10509;46.476;7.134;2023-08-21T12:18:58;1.85;;;1.20;;
20142;SDS011;10509;46.476;7.134;2023-08-21T12:21:24;2.97;;;1.25;;
20142;SDS011;10509;46.476;7.134;2023-08-21T12:23:50;3.38;;;1.00;;
20142;SDS011;10509;46.476;7.134;2023-08-21T12:26:16;3.50;;;1.30;;
20142;SDS011;10509;46.476;7.134;2023-08-21T12:28:46;2.35;;;1.02;;
20142;SDS011;10509;46.476;7.134;2023-08-21T12:31:12;3.30;;;1.10;;
20142;SDS011;10509;46.476;7.134;2023-08-21T12:33:38;2.30;;;1.20;;
20142;SDS011;10509;46.476;7.134;2023-08-21T12:36:04;3.05;;;1.20;;
20142;SDS011;10509;46.476;7.134;2023-08-21T12:38:30;8.07;;;1.50;;
20142;SDS011;10509;46.476;7.134;2023-08-21T12:40:57;3.75;;;1.70;;
20142;SDS011;10509;46.476;7.134;2023-08-21T12:43:23;1.35;;;1.20;;
20142;SDS011;10509;46.476;7.134;2023-08-21T12:45:50;3.65;;;1.20;;
20142;SDS011;10509;46.476;7.134;2023-08-21T12:48:16;2.28;;;1.40;;
20142;SDS011;10509;46.476;7.134;2023-08-21T12:50:42;2.30;;;1.33;;
20142;SDS011;10509;46.476;7.134;2023-08-21T12:53:08;2.70;;;1.58;;
20142;SDS011;10509;46.476;7.134;2023-08-21T12:55:34;5.78;;;2.00;;
20142;SDS011;10509;46.476;7.134;2023-08-21T12:58:01;4.50;;;1.70;;
20142;SDS011;10509;46.476;7.134;2023-08-21T13:00:27;3.30;;;1.70;;
20142;SDS011;10509;46.476;7.134;2023-08-21T13:02:53;3.90;;;2.05;;
20142;SDS011;10509;46.476;7.134;2023-08-21T13:05:19;3.05;;;1.55;;
20142;SDS011;10509;46.476;7.134;2023-08-21T13:07:45;3.47;;;1.50;;
20142;SDS011;10509;46.476;7.134;2023-08-21T13:10:11;4.93;;;1.92;;
20142;SDS011;10509;46.476;7.134;2023-08-21T13:12:37;2.50;;;1.70;;
20142;SDS011;10509;46.476;7.134;2023-08-21T13:15:03;6.00;;;2.30;;
20142;SDS011;10509;46.476;7.134;2023-08-21T13:17:32;2.88;;;1.60;;
20142;SDS011;10509;46.476;7.134;2023-08-21T13:19:58;3.63;;;1.77;;
20142;SDS011;10509;46.476;7.134;2023-08-21T13:22:24;3.45;;;1.70;;
20142;SDS011;10509;46.476;7.134;2023-08-21T13:24:50;3.90;;;2.13;;
20142;SDS011;10509;46.476;7.134;2023-08-21T13:27:16;2.65;;;1.75;;
20142;SDS011;10509;46.476;7.134;2023-08-21T13:29:42;2.75;;;1.80;;
20142;SDS011;10509;46.476;7.134;2023-08-21T13:32:08;4.97;;;1.63;;
20142;SDS011;10509;46.476;7.134;2023-08-21T13:34:35;4.70;;;2.05;;
20142;SDS011;10509;46.476;7.134;2023-08-21T13:37:01;2.90;;;1.77;;
20142;SDS011;10509;46.476;7.134;2023-08-21T13:39:27;5.95;;;1.70;;
20142;SDS011;10509;46.476;7.134;2023-08-21T13:41:53;4.40;;;2.30;;
20142;SDS011;10509;46.476;7.134;2023-08-21T13:44:19;3.33;;;2.03;;
20142;SDS011;10509;46.476;7.134;2023-08-21T13:46:45;2.55;;;1.70;;
20142;SDS011;10509;46.476;7.134;2023-08-21T13:49:11;4.03;;;2.20;;
20142;SDS011;10509;46.476;7.134;2023-08-21T13:51:37;4.25;;;2.15;;
20142;SDS011;10509;46.476;7.134;2023-08-21T13:54:03;3.72;;;2.08;;
20142;SDS011;10509;46.476;7.134;2023-08-21T13:56:29;5.07;;;2.28;;
20142;SDS011;10509;46.476;7.134;2023-08-21T13:58:55;6.53;;;2.00;;
20142;SDS011;10509;46.476;7.134;2023-08-21T14:01:21;3.67;;;1.90;;
20142;SDS011;10509;46.476;7.134;2023-08-21T14:03:47;5.50;;;2.28;;
20142;SDS011;10509;46.476;7.134;2023-08-21T14:06:13;16.05;;;3.10;;
20142;SDS011;10509;46.476;7.134;2023-08-21T14:08:39;3.95;;;1.88;;
20142;SDS011;10509;46.476;7.134;2023-08-21T14:11:05;8.75;;;2.20;;
20142;SDS011;10509;46.476;7.134;2023-08-21T14:13:31;4.90;;;1.98;;
20142;SDS011;10509;46.476;7.134;2023-08-21T14:15:57;4.32;;;2.20;;
20142;SDS011;10509;46.476;7.134;2023-08-21T14:18:23;5.57;;;2.05;;
20142;SDS011;10509;46.476;7.134;2023-08-21T14:20:49;6.13;;;2.15;;
20142;SDS011;10509;46.476;7.134;2023-08-21T14:23:15;6.05;;;2.33;;
20142;SDS011;10509;46.476;7.134;2023-08-21T14:25:41;4.38;;;2.30;;
20142;SDS011;10509;46.476;7.134;2023-08-21T14:28:07;2.05;;;1.77;;
20142;SDS011;10509;46.476;7.134;2023-08-21T14:30:33;3.47;;;1.90;;
20142;SDS011;10509;46.476;7.134;2023-08-21T14:32:59;6.07;;;2.45;;
20142;SDS011;10509;46.476;7.134;2023-08-21T14:35:26;5.45;;;2.08;;
20142;SDS011;10509;46.476;7.134;2023-08-21T14:37:51;5.30;;;1.85;;
20142;SDS011;10509;46.476;7.134;2023-08-21T14:40:17;4.18;;;1.63;;
20142;SDS011;10509;46.476;7.134;2023-08-21T14:42:43;4.65;;;1.92;;
20142;SDS011;10509;46.476;7.134;2023-08-21T14:45:09;3.00;;;1.90;;
20142;SDS011;10509;46.476;7.134;2023-08-21T14:47:36;3.78;;;1.60;;
20142;SDS011;10509;46.476;7.134;2023-08-21T14:50:02;3.03;;;2.40;;
20142;SDS011;10509;46.476;7.134;2023-08-21T14:52:28;1.88;;;1.50;;